sensor_id;sensor_type;location;lat;lon;timestamp;pressure;altitude;pressure_sealevel;temperature
74321;BMP280;62738;45.772;4.804;2023-04-24T00:01:34;99164.59;;;16.44
74321;BMP280;62738;45.772;4.804;2023-04-24T00:04:03;99170.75;;;16.29
74321;BMP280;62738;45.772;4.804;2023-04-24T00:06:30;99165.22;;;16.04
74321;BMP280;62738;45.772;4.804;2023-04-24T00:09:00;99163.75;;;16.03
74321;BMP280;62738;45.772;4.804;2023-04-24T00:11:27;99173.06;;;15.94
74321;BMP280;62738;45.772;4.804;2023-04-24T00:13:54;99167.06;;;15.86
74321;BMP280;62738;45.772;4.804;2023-04-24T00:16:21;99171.13;;;15.96
74321;BMP280;62738;45.772;4.804;2023-04-24T00:18:48;99164.44;;;16.15
74321;BMP280;62738;45.772;4.804;2023-04-24T00:21:15;99159.63;;;16.04
74321;BMP280;62738;45.772;4.804;2023-04-24T00:23:44;99168.19;;;15.94
74321;BMP280;62738;45.772;4.804;2023-04-24T00:26:10;99176.34;;;15.76
74321;BMP280;62738;45.772;4.804;2023-04-24T00:28:37;99176.69;;;15.83
74321;BMP280;62738;45.772;4.804;2023-04-24T00:31:04;99172.31;;;15.80
74321;BMP280;62738;45.772;4.804;2023-04-24T00:33:30;99168.88;;;15.81
74321;BMP280;62738;45.772;4.804;2023-04-24T00:35:57;99181.59;;;15.96
74321;BMP280;62738;45.772;4.804;2023-04-24T00:38:24;99176.47;;;15.92
74321;BMP280;62738;45.772;4.804;2023-04-24T00:40:50;99184.66;;;15.26
74321;BMP280;62738;45.772;4.804;2023-04-24T00:43:17;99177.91;;;15.17
74321;BMP280;62738;45.772;4.804;2023-04-24T00:45:44;99181.59;;;15.33
74321;BMP280;62738;45.772;4.804;2023-04-24T00:48:11;99179.28;;;15.42
74321;BMP280;62738;45.772;4.804;2023-04-24T00:50:38;99175.72;;;15.53
74321;BMP280;62738;45.772;4.804;2023-04-24T00:53:05;99175.56;;;15.25
74321;BMP280;62738;45.772;4.804;2023-04-24T00:55:32;99177.09;;;15.40
74321;BMP280;62738;45.772;4.804;2023-04-24T00:57:59;99177.69;;;15.39
74321;BMP280;62738;45.772;4.804;2023-04-24T01:00:26;99168.69;;;15.52
74321;BMP280;62738;45.772;4.804;2023-04-24T01:02:53;99175.66;;;15.27
74321;BMP280;62738;45.772;4.804;2023-04-24T01:05:20;99165.66;;;14.99
74321;BMP280;62738;45.772;4.804;2023-04-24T01:07:47;99168.97;;;15.32
74321;BMP280;62738;45.772;4.804;2023-04-24T01:10:15;99166.66;;;15.66
74321;BMP280;62738;45.772;4.804;2023-04-24T01:12:44;99173.78;;;15.07
74321;BMP280;62738;45.772;4.804;2023-04-24T01:15:10;99160.63;;;15.58
74321;BMP280;62738;45.772;4.804;2023-04-24T01:17:37;99161.50;;;15.12
74321;BMP280;62738;45.772;4.804;2023-04-24T01:20:06;99158.41;;;14.82
74321;BMP280;62738;45.772;4.804;2023-04-24T01:22:33;99162.53;;;14.93
74321;BMP280;62738;45.772;4.804;2023-04-24T01:25:01;99158.16;;;14.67
74321;BMP280;62738;45.772;4.804;2023-04-24T01:27:28;99161.94;;;14.71
74321;BMP280;62738;45.772;4.804;2023-04-24T01:29:54;99177.94;;;14.48
74321;BMP280;62738;45.772;4.804;2023-04-24T01:32:21;99168.34;;;14.39
74321;BMP280;62738;45.772;4.804;2023-04-24T01:34:48;99161.59;;;14.54
74321;BMP280;62738;45.772;4.804;2023-04-24T01:37:15;99161.44;;;14.86
74321;BMP280;62738;45.772;4.804;2023-04-24T01:39:43;99152.25;;;14.61
74321;BMP280;62738;45.772;4.804;2023-04-24T01:42:10;99161.94;;;14.71
74321;BMP280;62738;45.772;4.804;2023-04-24T01:44:38;99158.25;;;13.99
74321;BMP280;62738;45.772;4.804;2023-04-24T01:47:05;99168.50;;;13.85
74321;BMP280;62738;45.772;4.804;2023-04-24T01:49:32;99164.69;;;13.69
74321;BMP280;62738;45.772;4.804;2023-04-24T01:51:59;99170.00;;;13.97
74321;BMP280;62738;45.772;4.804;2023-04-24T01:54:25;99182.53;;;13.54
74321;BMP280;62738;45.772;4.804;2023-04-24T01:56:52;99174.38;;;13.68
74321;BMP280;62738;45.772;4.804;2023-04-24T01:59:20;99178.34;;;13.65
74321;BMP280;62738;45.772;4.804;2023-04-24T02:01:47;99179.16;;;13.55
74321;BMP280;62738;45.772;4.804;2023-04-24T02:04:14;99182.22;;;13.92
74321;BMP280;62738;45.772;4.804;2023-04-24T02:06:41;99181.63;;;13.94
74321;BMP280;62738;45.772;4.804;2023-04-24T02:09:08;99181.44;;;14.13
74321;BMP280;62738;45.772;4.804;2023-04-24T02:11:35;99180.84;;;14.38
74321;BMP280;62738;45.772;4.804;2023-04-24T02:14:01;99185.75;;;14.61
74321;BMP280;62738;45.772;4.804;2023-04-24T02:16:28;99189.13;;;14.82
74321;BMP280;62738;45.772;4.804;2023-04-24T02:18:58;99188.03;;;14.76
74321;BMP280;62738;45.772;4.804;2023-04-24T02:21:25;99187.06;;;14.60
74321;BMP280;62738;45.772;4.804;2023-04-24T02:23:51;99176.88;;;14.64
74321;BMP280;62738;45.772;4.804;2023-04-24T02:26:18;99186.09;;;14.55
74321;BMP280;62738;45.772;4.804;2023-04-24T02:28:45;99183.66;;;14.73
74321;BMP280;62738;45.772;4.804;2023-04-24T02:31:11;99188.03;;;14.76
74321;BMP280;62738;45.772;4.804;2023-04-24T02:33:38;99191.91;;;14.94
74321;BMP280;62738;45.772;4.804;2023-04-24T02:36:05;99196.25;;;14.74
74321;BMP280;62738;45.772;4.804;2023-04-24T02:38:31;99190.44;;;14.70
74321;BMP280;62738;45.772;4.804;2023-04-24T02:40:58;99189.84;;;14.83
74321;BMP280;62738;45.772;4.804;2023-04-24T02:43:24;99192.97;;;15.01
74321;BMP280;62738;45.772;4.804;2023-04-24T02:45:51;99189.00;;;14.92
74321;BMP280;62738;45.772;4.804;2023-04-24T02:48:18;99192.63;;;14.83
74321;BMP280;62738;45.772;4.804;2023-04-24T02:50:44;99197.25;;;14.43
74321;BMP280;62738;45.772;4.804;2023-04-24T02:53:11;99203.09;;;14.03
74321;BMP280;62738;45.772;4.804;2023-04-24T02:55:38;99202.00;;;14.08
74321;BMP280;62738;45.772;4.804;2023-04-24T02:58:04;99205.94;;;14.26
74321;BMP280;62738;45.772;4.804;2023-04-24T03:00:32;99209.84;;;14.44
74321;BMP280;62738;45.772;4.804;2023-04-24T03:02:59;99218.94;;;14.33
74321;BMP280;62738;45.772;4.804;2023-04-24T03:05:26;99220.47;;;14.13
74321;BMP280;62738;45.772;4.804;2023-04-24T03:07:53;99226.69;;;13.90
74321;BMP280;62738;45.772;4.804;2023-04-24T03:10:20;99242.03;;;13.80
74321;BMP280;62738;45.772;4.804;2023-04-24T03:12:49;99243.34;;;13.67
74321;BMP280;62738;45.772;4.804;2023-04-24T03:15:15;99242.97;;;13.94
74321;BMP280;62738;45.772;4.804;2023-04-24T03:17:42;99235.88;;;14.14
74321;BMP280;62738;45.772;4.804;2023-04-24T03:20:09;99242.75;;;14.46
74321;BMP280;62738;45.772;4.804;2023-04-24T03:22:36;99249.22;;;14.72
74321;BMP280;62738;45.772;4.804;2023-04-24T03:25:02;99254.53;;;14.79
74321;BMP280;62738;45.772;4.804;2023-04-24T03:27:29;99248.50;;;14.95
74321;BMP280;62738;45.772;4.804;2023-04-24T03:29:56;99262.22;;;14.91
74321;BMP280;62738;45.772;4.804;2023-04-24T03:32:23;99269.00;;;14.76
74321;BMP280;62738;45.772;4.804;2023-04-24T03:34:50;99277.00;;;14.81
74321;BMP280;62738;45.772;4.804;2023-04-24T03:37:17;99280.78;;;14.86
74321;BMP280;62738;45.772;4.804;2023-04-24T03:39:44;99280.03;;;15.09
74321;BMP280;62738;45.772;4.804;2023-04-24T03:42:11;99285.28;;;15.14
74321;BMP280;62738;45.772;4.804;2023-04-24T03:44:37;99289.78;;;14.84
74321;BMP280;62738;45.772;4.804;2023-04-24T03:47:04;99295.06;;;14.69
74321;BMP280;62738;45.772;4.804;2023-04-24T03:49:31;99291.25;;;14.29
74321;BMP280;62738;45.772;4.804;2023-04-24T03:51:58;99292.72;;;14.09
74321;BMP280;62738;45.772;4.804;2023-04-24T03:54:24;99294.31;;;14.12
74321;BMP280;62738;45.772;4.804;2023-04-24T03:56:51;99298.75;;;14.27
74321;BMP280;62738;45.772;4.804;2023-04-24T03:59:17;99292.47;;;14.05
74321;BMP280;62738;45.772;4.804;2023-04-24T04:01:44;99295.16;;;14.15
74321;BMP280;62738;45.772;4.804;2023-04-24T04:04:11;99290.72;;;14.21
74321;BMP280;62738;45.772;4.804;2023-04-24T04:06:38;99291.09;;;14.27
74321;BMP280;62738;45.772;4.804;2023-04-24T04:09:05;99292.25;;;14.45
74321;BMP280;62738;45.772;4.804;2023-04-24T04:11:33;99292.66;;;14.63
74321;BMP280;62738;45.772;4.804;2023-04-24T04:13:59;99294.63;;;14.84
74321;BMP280;62738;45.772;4.804;2023-04-24T04:16:26;99297.22;;;14.47
74321;BMP280;62738;45.772;4.804;2023-04-24T04:18:53;99304.72;;;14.44
74321;BMP280;62738;45.772;4.804;2023-04-24T04:21:19;99300.19;;;14.61
74321;BMP280;62738;45.772;4.804;2023-04-24T04:23:46;99303.84;;;14.75
74321;BMP280;62738;45.772;4.804;2023-04-24T04:26:13;99309.53;;;14.65
74321;BMP280;62738;45.772;4.804;2023-04-24T04:28:40;99315.00;;;13.97
74321;BMP280;62738;45.772;4.804;2023-04-24T04:31:07;99319.22;;;14.20
74321;BMP280;62738;45.772;4.804;2023-04-24T04:33:34;99330.84;;;14.16
74321;BMP280;62738;45.772;4.804;2023-04-24T04:36:02;99324.16;;;14.42
74321;BMP280;62738;45.772;4.804;2023-04-24T04:38:30;99329.00;;;14.42
74321;BMP280;62738;45.772;4.804;2023-04-24T04:40:56;99327.63;;;14.76
74321;BMP280;62738;45.772;4.804;2023-04-24T04:43:26;99335.19;;;14.85
74321;BMP280;62738;45.772;4.804;2023-04-24T04:45:52;99324.88;;;14.87
74321;BMP280;62738;45.772;4.804;2023-04-24T04:48:21;99325.00;;;14.89
74321;BMP280;62738;45.772;4.804;2023-04-24T04:50:47;99332.34;;;14.62
74321;BMP280;62738;45.772;4.804;2023-04-24T04:53:14;99337.56;;;14.67
74321;BMP280;62738;45.772;4.804;2023-04-24T04:55:41;99343.41;;;14.60
74321;BMP280;62738;45.772;4.804;2023-04-24T04:58:08;99341.28;;;14.16
74321;BMP280;62738;45.772;4.804;2023-04-24T05:00:35;99344.41;;;14.10
74321;BMP280;62738;45.772;4.804;2023-04-24T05:03:03;99338.81;;;14.10
74321;BMP280;62738;45.772;4.804;2023-04-24T05:05:46;99350.91;;;14.24
74321;BMP280;62738;45.772;4.804;2023-04-24T05:08:12;99358.34;;;14.31
74321;BMP280;62738;45.772;4.804;2023-04-24T05:10:53;99363.00;;;14.17
74321;BMP280;62738;45.772;4.804;2023-04-24T05:13:19;99375.03;;;14.20
74321;BMP280;62738;45.772;4.804;2023-04-24T05:15:57;99373.22;;;14.57
74321;BMP280;62738;45.772;4.804;2023-04-24T05:18:24;99375.84;;;14.43
74321;BMP280;62738;45.772;4.804;2023-04-24T05:20:50;99373.97;;;14.58
74321;BMP280;62738;45.772;4.804;2023-04-24T05:23:17;99381.63;;;14.69
74321;BMP280;62738;45.772;4.804;2023-04-24T05:25:44;99386.53;;;14.47
74321;BMP280;62738;45.772;4.804;2023-04-24T05:28:12;99391.72;;;14.74
74321;BMP280;62738;45.772;4.804;2023-04-24T05:30:39;99388.78;;;14.39
74321;BMP280;62738;45.772;4.804;2023-04-24T05:33:06;99396.69;;;14.31
74321;BMP280;62738;45.772;4.804;2023-04-24T05:35:32;99405.91;;;14.33
74321;BMP280;62738;45.772;4.804;2023-04-24T05:37:59;99409.34;;;14.43
74321;BMP280;62738;45.772;4.804;2023-04-24T05:40:26;99405.34;;;14.79
74321;BMP280;62738;45.772;4.804;2023-04-24T05:42:52;99422.88;;;14.59
74321;BMP280;62738;45.772;4.804;2023-04-24T05:45:19;99430.00;;;14.50
74321;BMP280;62738;45.772;4.804;2023-04-24T05:47:45;99432.19;;;14.52
74321;BMP280;62738;45.772;4.804;2023-04-24T05:50:12;99439.63;;;14.59
74321;BMP280;62738;45.772;4.804;2023-04-24T05:52:39;99444.81;;;14.53
74321;BMP280;62738;45.772;4.804;2023-04-24T05:55:05;99451.81;;;14.75
74321;BMP280;62738;45.772;4.804;2023-04-24T05:57:32;99460.25;;;14.86
74321;BMP280;62738;45.772;4.804;2023-04-24T05:59:59;99460.97;;;14.54
74321;BMP280;62738;45.772;4.804;2023-04-24T06:02:26;99465.00;;;14.20
74321;BMP280;62738;45.772;4.804;2023-04-24T06:04:54;99468.19;;;14.05
74321;BMP280;62738;45.772;4.804;2023-04-24T06:07:21;99471.06;;;13.86
74321;BMP280;62738;45.772;4.804;2023-04-24T06:09:48;99471.06;;;13.86
74321;BMP280;62738;45.772;4.804;2023-04-24T06:12:15;99467.06;;;13.68
74321;BMP280;62738;45.772;4.804;2023-04-24T06:14:41;99466.97;;;13.46
74321;BMP280;62738;45.772;4.804;2023-04-24T06:17:08;99474.88;;;13.50
74321;BMP280;62738;45.772;4.804;2023-04-24T06:19:35;99478.75;;;13.76
74321;BMP280;62738;45.772;4.804;2023-04-24T06:22:01;99481.28;;;13.72
74321;BMP280;62738;45.772;4.804;2023-04-24T06:24:28;99483.72;;;14.08
74321;BMP280;62738;45.772;4.804;2023-04-24T06:26:55;99486.75;;;14.00
74321;BMP280;62738;45.772;4.804;2023-04-24T06:29:23;99487.97;;;13.78
74321;BMP280;62738;45.772;4.804;2023-04-24T06:31:50;99490.19;;;13.80
74321;BMP280;62738;45.772;4.804;2023-04-24T06:34:16;99493.75;;;13.71
74321;BMP280;62738;45.772;4.804;2023-04-24T06:36:43;99493.03;;;14.01
74321;BMP280;62738;45.772;4.804;2023-04-24T06:39:10;99493.78;;;14.23
74321;BMP280;62738;45.772;4.804;2023-04-24T06:41:36;99491.47;;;14.62
74321;BMP280;62738;45.772;4.804;2023-04-24T06:44:03;99497.72;;;14.51
74321;BMP280;62738;45.772;4.804;2023-04-24T06:46:29;99515.88;;;14.09
74321;BMP280;62738;45.772;4.804;2023-04-24T06:48:56;99512.97;;;14.07
74321;BMP280;62738;45.772;4.804;2023-04-24T06:51:23;99508.56;;;14.04
74321;BMP280;62738;45.772;4.804;2023-04-24T06:53:53;99514.56;;;14.10
74321;BMP280;62738;45.772;4.804;2023-04-24T06:56:20;99521.06;;;14.34
74321;BMP280;62738;45.772;4.804;2023-04-24T06:58:47;99520.44;;;13.74
74321;BMP280;62738;45.772;4.804;2023-04-24T07:01:14;99521.22;;;13.55
74321;BMP280;62738;45.772;4.804;2023-04-24T07:03:41;99525.84;;;14.12
74321;BMP280;62738;45.772;4.804;2023-04-24T07:06:09;99523.38;;;13.76
74321;BMP280;62738;45.772;4.804;2023-04-24T07:08:39;99521.97;;;13.55
74321;BMP280;62738;45.772;4.804;2023-04-24T07:11:08;99532.75;;;13.80
74321;BMP280;62738;45.772;4.804;2023-04-24T07:13:35;99532.25;;;13.93
74321;BMP280;62738;45.772;4.804;2023-04-24T07:16:01;99529.34;;;14.43
74321;BMP280;62738;45.772;4.804;2023-04-24T07:18:28;99528.94;;;14.37
74321;BMP280;62738;45.772;4.804;2023-04-24T07:20:55;99534.16;;;13.91
74321;BMP280;62738;45.772;4.804;2023-04-24T07:23:22;99528.50;;;14.10
74321;BMP280;62738;45.772;4.804;2023-04-24T07:25:49;99534.75;;;14.30
74321;BMP280;62738;45.772;4.804;2023-04-24T07:28:16;99533.03;;;14.15
74321;BMP280;62738;45.772;4.804;2023-04-24T07:30:44;99529.38;;;14.65
74321;BMP280;62738;45.772;4.804;2023-04-24T07:33:11;99516.59;;;14.83
74321;BMP280;62738;45.772;4.804;2023-04-24T07:35:39;99524.16;;;14.92
74321;BMP280;62738;45.772;4.804;2023-04-24T07:38:06;99527.28;;;14.86
74321;BMP280;62738;45.772;4.804;2023-04-24T07:40:33;99528.34;;;14.39
74321;BMP280;62738;45.772;4.804;2023-04-24T07:42:59;99532.41;;;14.48
74321;BMP280;62738;45.772;4.804;2023-04-24T07:45:26;99533.69;;;15.10
74321;BMP280;62738;45.772;4.804;2023-04-24T07:47:54;99530.47;;;14.93
74321;BMP280;62738;45.772;4.804;2023-04-24T07:50:21;99528.22;;;13.75
74321;BMP280;62738;45.772;4.804;2023-04-24T07:52:48;99532.09;;;14.53
74321;BMP280;62738;45.772;4.804;2023-04-24T07:55:15;99537.13;;;15.20
74321;BMP280;62738;45.772;4.804;2023-04-24T07:57:41;99540.34;;;15.38
74321;BMP280;62738;45.772;4.804;2023-04-24T08:00:09;99549.75;;;15.54
74321;BMP280;62738;45.772;4.804;2023-04-24T08:02:35;99551.41;;;15.48
74321;BMP280;62738;45.772;4.804;2023-04-24T08:05:02;99545.69;;;14.80
74321;BMP280;62738;45.772;4.804;2023-04-24T08:07:30;99556.66;;;15.42
74321;BMP280;62738;45.772;4.804;2023-04-24T08:09:56;99561.47;;;15.29
74321;BMP280;62738;45.772;4.804;2023-04-24T08:12:23;99555.50;;;15.23
74321;BMP280;62738;45.772;4.804;2023-04-24T08:14:50;99557.84;;;15.39
74321;BMP280;62738;45.772;4.804;2023-04-24T08:17:17;99555.38;;;15.00
74321;BMP280;62738;45.772;4.804;2023-04-24T08:19:43;99555.75;;;14.52
74321;BMP280;62738;45.772;4.804;2023-04-24T08:22:17;99550.78;;;15.05
74321;BMP280;62738;45.772;4.804;2023-04-24T08:24:44;99559.13;;;15.26
74321;BMP280;62738;45.772;4.804;2023-04-24T08:27:10;99559.75;;;15.03
74321;BMP280;62738;45.772;4.804;2023-04-24T08:29:37;99567.03;;;15.29
74321;BMP280;62738;45.772;4.804;2023-04-24T08:32:03;99561.19;;;15.14
74321;BMP280;62738;45.772;4.804;2023-04-24T08:34:30;99568.63;;;15.32
74321;BMP280;62738;45.772;4.804;2023-04-24T08:36:57;99564.34;;;15.76
74321;BMP280;62738;45.772;4.804;2023-04-24T08:39:23;99560.47;;;15.93
74321;BMP280;62738;45.772;4.804;2023-04-24T08:41:50;99557.66;;;15.69
74321;BMP280;62738;45.772;4.804;2023-04-24T08:44:19;99561.19;;;15.14
74321;BMP280;62738;45.772;4.804;2023-04-24T08:46:47;99561.22;;;15.04
74321;BMP280;62738;45.772;4.804;2023-04-24T08:49:15;99561.22;;;15.37
74321;BMP280;62738;45.772;4.804;2023-04-24T08:51:45;99565.72;;;16.10
74321;BMP280;62738;45.772;4.804;2023-04-24T08:54:13;99545.03;;;16.03
74321;BMP280;62738;45.772;4.804;2023-04-24T08:56:43;99561.31;;;16.42
74321;BMP280;62738;45.772;4.804;2023-04-24T08:59:11;99555.38;;;16.12
74321;BMP280;62738;45.772;4.804;2023-04-24T09:01:39;99559.16;;;16.05
74321;BMP280;62738;45.772;4.804;2023-04-24T09:04:08;99562.56;;;16.15
74321;BMP280;62738;45.772;4.804;2023-04-24T09:06:39;99566.94;;;15.95
74321;BMP280;62738;45.772;4.804;2023-04-24T09:09:08;99555.00;;;15.83
74321;BMP280;62738;45.772;4.804;2023-04-24T09:11:37;99567.75;;;15.63
74321;BMP280;62738;45.772;4.804;2023-04-24T09:14:05;99568.63;;;15.77
74321;BMP280;62738;45.772;4.804;2023-04-24T09:16:33;99554.75;;;16.02
74321;BMP280;62738;45.772;4.804;2023-04-24T09:19:02;99553.31;;;15.78
74321;BMP280;62738;45.772;4.804;2023-04-24T09:21:33;99558.41;;;15.93
74321;BMP280;62738;45.772;4.804;2023-04-24T09:24:02;99567.16;;;15.88
74321;BMP280;62738;45.772;4.804;2023-04-24T09:26:35;99558.88;;;16.24
74321;BMP280;62738;45.772;4.804;2023-04-24T09:29:03;99564.44;;;16.48
74321;BMP280;62738;45.772;4.804;2023-04-24T09:31:30;99553.38;;;16.87
74321;BMP280;62738;45.772;4.804;2023-04-24T09:34:02;99554.91;;;17.01
74321;BMP280;62738;45.772;4.804;2023-04-24T09:39:09;99552.94;;;17.29
74321;BMP280;62738;45.772;4.804;2023-04-24T09:41:47;99548.47;;;16.99
74321;BMP280;62738;45.772;4.804;2023-04-24T09:44:18;99549.22;;;16.88
74321;BMP280;62738;45.772;4.804;2023-04-24T09:46:55;99544.31;;;16.63
74321;BMP280;62738;45.772;4.804;2023-04-24T09:49:28;99544.13;;;16.84
74321;BMP280;62738;45.772;4.804;2023-04-24T09:52:09;99538.56;;;17.62
74321;BMP280;62738;45.772;4.804;2023-04-24T09:54:36;99541.34;;;17.48
74321;BMP280;62738;45.772;4.804;2023-04-24T09:57:03;99545.31;;;17.18
74321;BMP280;62738;45.772;4.804;2023-04-24T09:59:30;99542.25;;;17.00
74321;BMP280;62738;45.772;4.804;2023-04-24T10:01:57;99532.41;;;17.13
74321;BMP280;62738;45.772;4.804;2023-04-24T10:04:27;99533.84;;;16.15
74321;BMP280;62738;45.772;4.804;2023-04-24T10:06:56;99540.16;;;15.69
74321;BMP280;62738;45.772;4.804;2023-04-24T10:09:24;99538.09;;;15.93
74321;BMP280;62738;45.772;4.804;2023-04-24T10:11:53;99528.84;;;16.62
74321;BMP280;62738;45.772;4.804;2023-04-24T10:14:22;99532.91;;;17.35
74321;BMP280;62738;45.772;4.804;2023-04-24T10:16:51;99533.59;;;18.29
74321;BMP280;62738;45.772;4.804;2023-04-24T10:19:19;99525.31;;;18.60
74321;BMP280;62738;45.772;4.804;2023-04-24T10:21:46;99531.47;;;18.43
74321;BMP280;62738;45.772;4.804;2023-04-24T10:24:14;99524.38;;;18.85
74321;BMP280;62738;45.772;4.804;2023-04-24T10:26:42;99523.56;;;18.98
74321;BMP280;62738;45.772;4.804;2023-04-24T10:29:13;99517.00;;;19.23
74321;BMP280;62738;45.772;4.804;2023-04-24T10:31:42;99509.78;;;18.02
74321;BMP280;62738;45.772;4.804;2023-04-24T10:34:12;99518.34;;;17.25
74321;BMP280;62738;45.772;4.804;2023-04-24T10:36:41;99512.06;;;17.12
74321;BMP280;62738;45.772;4.804;2023-04-24T10:39:12;99501.69;;;17.95
74321;BMP280;62738;45.772;4.804;2023-04-24T10:41:40;99497.31;;;17.78
74321;BMP280;62738;45.772;4.804;2023-04-24T10:44:14;99496.50;;;17.89
74321;BMP280;62738;45.772;4.804;2023-04-24T10:46:46;99494.41;;;18.46
74321;BMP280;62738;45.772;4.804;2023-04-24T10:49:14;99499.97;;;18.31
74321;BMP280;62738;45.772;4.804;2023-04-24T10:51:50;99504.25;;;18.04
74321;BMP280;62738;45.772;4.804;2023-04-24T10:59:47;99501.38;;;17.62
74321;BMP280;62738;45.772;4.804;2023-04-24T11:02:17;99498.16;;;18.51
74321;BMP280;62738;45.772;4.804;2023-04-24T11:04:44;99496.47;;;19.05
74321;BMP280;62738;45.772;4.804;2023-04-24T11:07:12;99499.72;;;18.99
74321;BMP280;62738;45.772;4.804;2023-04-24T11:09:42;99495.22;;;18.20
74321;BMP280;62738;45.772;4.804;2023-04-24T11:12:11;99498.81;;;18.49
74321;BMP280;62738;45.772;4.804;2023-04-24T11:17:33;99500.34;;;18.97
74321;BMP280;62738;45.772;4.804;2023-04-24T11:20:04;99506.88;;;19.02
74321;BMP280;62738;45.772;4.804;2023-04-24T11:22:53;99487.78;;;18.40
74321;BMP280;62738;45.772;4.804;2023-04-24T11:25:22;99494.72;;;17.96
74321;BMP280;62738;45.772;4.804;2023-04-24T11:27:49;99486.91;;;18.08
74321;BMP280;62738;45.772;4.804;2023-04-24T11:30:20;99493.09;;;18.92
74321;BMP280;62738;45.772;4.804;2023-04-24T11:32:48;99491.94;;;19.60
74321;BMP280;62738;45.772;4.804;2023-04-24T11:35:18;99489.06;;;19.91
74321;BMP280;62738;45.772;4.804;2023-04-24T11:37:47;99482.03;;;20.43
74321;BMP280;62738;45.772;4.804;2023-04-24T11:40:36;99478.25;;;19.86
74321;BMP280;62738;45.772;4.804;2023-04-24T11:43:03;99474.97;;;19.91
74321;BMP280;62738;45.772;4.804;2023-04-24T11:45:33;99479.94;;;20.09
74321;BMP280;62738;45.772;4.804;2023-04-24T11:48:00;99480.91;;;19.82
74321;BMP280;62738;45.772;4.804;2023-04-24T11:50:27;99472.00;;;19.87
74321;BMP280;62738;45.772;4.804;2023-04-24T11:52:55;99481.72;;;18.59
74321;BMP280;62738;45.772;4.804;2023-04-24T11:55:23;99486.28;;;18.97
74321;BMP280;62738;45.772;4.804;2023-04-24T11:57:54;99484.47;;;18.88
74321;BMP280;62738;45.772;4.804;2023-04-24T12:00:23;99488.75;;;18.89
74321;BMP280;62738;45.772;4.804;2023-04-24T12:02:52;99472.53;;;18.29
74321;BMP280;62738;45.772;4.804;2023-04-24T12:05:29;99478.50;;;18.51
74321;BMP280;62738;45.772;4.804;2023-04-24T12:07:58;99480.38;;;18.46
74321;BMP280;62738;45.772;4.804;2023-04-24T12:10:26;99487.59;;;18.65
74321;BMP280;62738;45.772;4.804;2023-04-24T12:12:55;99486.53;;;18.72
74321;BMP280;62738;45.772;4.804;2023-04-24T12:15:23;99491.97;;;18.68
74321;BMP280;62738;45.772;4.804;2023-04-24T12:17:51;99485.91;;;17.88
74321;BMP280;62738;45.772;4.804;2023-04-24T12:22:54;99483.31;;;17.92
74321;BMP280;62738;45.772;4.804;2023-04-24T12:25:23;99485.25;;;18.75
74321;BMP280;62738;45.772;4.804;2023-04-24T12:28:11;99478.34;;;19.23
74321;BMP280;62738;45.772;4.804;2023-04-24T12:30:43;99472.97;;;18.24
74321;BMP280;62738;45.772;4.804;2023-04-24T12:33:11;99475.50;;;17.90
74321;BMP280;62738;45.772;4.804;2023-04-24T12:35:40;99475.34;;;18.29
74321;BMP280;62738;45.772;4.804;2023-04-24T12:38:15;99474.34;;;18.23
74321;BMP280;62738;45.772;4.804;2023-04-24T12:40:42;99484.28;;;18.84
74321;BMP280;62738;45.772;4.804;2023-04-24T12:43:19;99484.44;;;18.73
74321;BMP280;62738;45.772;4.804;2023-04-24T12:45:49;99482.66;;;18.79
74321;BMP280;62738;45.772;4.804;2023-04-24T12:48:16;99487.97;;;18.44
74321;BMP280;62738;45.772;4.804;2023-04-24T12:50:43;99470.22;;;17.83
74321;BMP280;62738;45.772;4.804;2023-04-24T12:53:12;99475.75;;;18.24
74321;BMP280;62738;45.772;4.804;2023-04-24T12:55:39;99468.91;;;18.56
74321;BMP280;62738;45.772;4.804;2023-04-24T12:58:07;99461.25;;;18.72
74321;BMP280;62738;45.772;4.804;2023-04-24T13:00:33;99455.47;;;19.15
74321;BMP280;62738;45.772;4.804;2023-04-24T13:03:00;99450.59;;;19.31
74321;BMP280;62738;45.772;4.804;2023-04-24T13:05:31;99450.19;;;19.55
74321;BMP280;62738;45.772;4.804;2023-04-24T13:07:57;99442.06;;;19.14
74321;BMP280;62738;45.772;4.804;2023-04-24T13:10:24;99457.75;;;18.87
74321;BMP280;62738;45.772;4.804;2023-04-24T13:12:51;99449.41;;;18.89
74321;BMP280;62738;45.772;4.804;2023-04-24T13:15:17;99437.34;;;19.02
74321;BMP280;62738;45.772;4.804;2023-04-24T13:17:44;99436.81;;;18.61
74321;BMP280;62738;45.772;4.804;2023-04-24T13:20:11;99433.00;;;18.99
74321;BMP280;62738;45.772;4.804;2023-04-24T13:22:37;99430.72;;;18.80
74321;BMP280;62738;45.772;4.804;2023-04-24T13:25:04;99425.66;;;19.08
74321;BMP280;62738;45.772;4.804;2023-04-24T13:27:32;99412.84;;;18.74
74321;BMP280;62738;45.772;4.804;2023-04-24T13:29:59;99419.91;;;19.06
74321;BMP280;62738;45.772;4.804;2023-04-24T13:32:25;99425.53;;;19.22
74321;BMP280;62738;45.772;4.804;2023-04-24T13:34:54;99421.84;;;19.17
74321;BMP280;62738;45.772;4.804;2023-04-24T13:37:20;99416.44;;;18.61
74321;BMP280;62738;45.772;4.804;2023-04-24T13:39:48;99415.56;;;18.42
74321;BMP280;62738;45.772;4.804;2023-04-24T13:42:15;99413.56;;;19.37
74321;BMP280;62738;45.772;4.804;2023-04-24T13:44:42;99410.56;;;19.48
74321;BMP280;62738;45.772;4.804;2023-04-24T13:47:08;99404.03;;;19.44
74321;BMP280;62738;45.772;4.804;2023-04-24T13:49:35;99395.06;;;19.32
74321;BMP280;62738;45.772;4.804;2023-04-24T13:52:01;99389.28;;;18.96
74321;BMP280;62738;45.772;4.804;2023-04-24T13:54:28;99381.09;;;19.67
74321;BMP280;62738;45.772;4.804;2023-04-24T13:56:57;99378.78;;;20.15
74321;BMP280;62738;45.772;4.804;2023-04-24T13:59:24;99373.25;;;20.54
74321;BMP280;62738;45.772;4.804;2023-04-24T14:01:51;99380.78;;;19.94
74321;BMP280;62738;45.772;4.804;2023-04-24T14:04:18;99381.56;;;19.62
74321;BMP280;62738;45.772;4.804;2023-04-24T14:06:45;99373.47;;;19.36
74321;BMP280;62738;45.772;4.804;2023-04-24T14:09:11;99364.81;;;19.48
74321;BMP280;62738;45.772;4.804;2023-04-24T14:11:39;99375.22;;;19.12
74321;BMP280;62738;45.772;4.804;2023-04-24T14:14:05;99367.75;;;19.68
74321;BMP280;62738;45.772;4.804;2023-04-24T14:16:32;99370.91;;;20.11
74321;BMP280;62738;45.772;4.804;2023-04-24T14:18:59;99368.00;;;20.27
74321;BMP280;62738;45.772;4.804;2023-04-24T14:21:26;99360.38;;;20.12
74321;BMP280;62738;45.772;4.804;2023-04-24T14:23:52;99364.88;;;20.01
74321;BMP280;62738;45.772;4.804;2023-04-24T14:26:19;99368.44;;;19.51